Time;durP1;ratioP1;P1;durP2;ratioP2;P2;SDS_P1;SDS_P2;PMS_P1;PMS_P2;Temp;Humidity;BMP_temperature;BMP_pressure;BME280_temperature;BME280_humidity;BME280_pressure;Samples;Min_cycle;Max_cycle;Signal;HPM_P1;HPM_P2
2023/08/19 00:00:58;;;;;;;15.07;13.10;;;22.00;99.90;;;;;;4969901;28;20034;-71
2023/08/19 00:03:44;;;;;;;16.33;14.63;;;21.90;99.90;;;;;;4961615;28;20109;-71
2023/08/19 00:06:35;;;;;;;16.40;14.70;;;21.80;99.90;;;;;;4971446;28;20039;-71
2023/08/19 00:09:21;;;;;;;17.95;15.20;;;21.80;99.90;;;;;;4962571;28;20045;-71
2023/08/19 00:12:07;;;;;;;17.48;15.68;;;21.90;99.90;;;;;;4962830;28;20046;-71
2023/08/19 00:14:55;;;;;;;21.52;17.25;;;21.90;99.90;;;;;;4964037;28;20130;-71
2023/08/19 00:17:41;;;;;;;17.27;15.45;;;21.80;99.90;;;;;;4971472;28;20047;-71
2023/08/19 00:20:28;;;;;;;20.00;16.98;;;21.80;99.90;;;;;;4956267;28;20472;-71
2023/08/19 00:23:16;;;;;;;20.73;16.50;;;21.90;99.90;;;;;;4952959;28;20049;-71
2023/08/19 00:26:02;;;;;;;18.67;16.77;;;21.80;99.90;;;;;;4968887;28;20070;-71
2023/08/19 00:28:47;;;;;;;19.45;15.90;;;21.70;99.90;;;;;;4974885;28;20078;-71
2023/08/19 00:31:33;;;;;;;18.55;15.77;;;21.80;99.90;;;;;;4974315;28;20049;-71
2023/08/19 00:34:19;;;;;;;20.05;16.58;;;21.70;99.90;;;;;;4961200;28;20138;-71
2023/08/19 00:37:07;;;;;;;17.83;16.02;;;21.70;99.90;;;;;;4962688;28;20043;-71
2023/08/19 00:39:53;;;;;;;20.88;17.00;;;21.70;99.90;;;;;;4987338;28;20050;-71
2023/08/19 00:42:39;;;;;;;19.40;16.33;;;21.70;99.90;;;;;;4980642;28;20042;-71
2023/08/19 00:45:25;;;;;;;19.67;17.58;;;21.70;99.90;;;;;;4988421;28;20073;-71
2023/08/19 00:48:11;;;;;;;20.60;17.52;;;21.70;99.90;;;;;;4973822;28;20108;-71
2023/08/19 00:50:58;;;;;;;19.77;16.40;;;21.60;99.90;;;;;;4975166;28;20042;-71
2023/08/19 00:53:45;;;;;;;19.33;17.10;;;21.60;99.90;;;;;;4974589;28;20054;-71
2023/08/19 00:56:31;;;;;;;19.85;17.75;;;21.60;99.90;;;;;;4983549;28;20072;-71
2023/08/19 00:59:17;;;;;;;19.60;17.05;;;21.60;99.90;;;;;;4966881;28;20046;-71
2023/08/19 01:02:03;;;;;;;19.85;17.13;;;21.50;99.90;;;;;;4964962;28;20035;-71
2023/08/19 01:04:49;;;;;;;19.77;16.42;;;21.60;99.90;;;;;;4962618;28;20096;-71
2023/08/19 01:07:46;;;;;;;18.52;15.73;;;21.60;99.90;;;;;;4979250;28;20436;-71
2023/08/19 01:10:39;;;;;;;18.03;16.07;;;21.60;99.90;;;;;;4958039;28;20039;-71
2023/08/19 01:13:30;;;;;;;17.20;15.40;;;21.50;99.90;;;;;;4972904;28;20096;-71
2023/08/19 01:16:25;;;;;;;18.65;16.13;;;21.40;99.90;;;;;;4965239;28;20039;-71
2023/08/19 01:19:18;;;;;;;19.55;16.95;;;21.50;99.90;;;;;;4945259;28;20070;-71
2023/08/19 01:22:05;;;;;;;19.40;17.20;;;21.50;99.90;;;;;;4996413;28;20256;-71
2023/08/19 01:24:51;;;;;;;20.30;16.30;;;21.40;99.90;;;;;;4959467;28;20035;-71
2023/08/19 01:27:37;;;;;;;19.60;17.50;;;21.40;99.90;;;;;;4968435;28;20042;-71
2023/08/19 01:30:24;;;;;;;17.95;16.15;;;21.40;99.90;;;;;;4948631;28;20058;-71
2023/08/19 01:33:10;;;;;;;19.02;16.75;;;21.30;99.90;;;;;;4989123;28;20097;-71
2023/08/19 01:36:06;;;;;;;21.05;18.23;;;21.20;99.90;;;;;;4965457;28;20097;-71
2023/08/19 01:38:55;;;;;;;20.83;17.55;;;21.30;99.90;;;;;;4967205;28;20047;-71
2023/08/19 01:41:40;;;;;;;25.42;20.83;;;21.20;99.90;;;;;;4959715;28;20042;-71
2023/08/19 01:44:26;;;;;;;26.17;22.70;;;21.20;99.90;;;;;;4954835;28;20058;-71
2023/08/19 01:47:19;;;;;;;29.30;23.60;;;21.30;99.90;;;;;;4963381;28;20043;-71
2023/08/19 01:50:06;;;;;;;28.00;23.65;;;21.30;99.90;;;;;;4979703;28;20383;-71
2023/08/19 01:52:52;;;;;;;31.87;24.70;;;21.30;99.90;;;;;;4958808;28;20085;-71
2023/08/19 01:55:38;;;;;;;31.73;27.35;;;21.40;99.90;;;;;;4978052;28;20382;-71
2023/08/19 01:58:23;;;;;;;27.85;24.48;;;21.40;99.90;;;;;;4956606;28;20050;-71
2023/08/19 02:01:11;;;;;;;27.10;24.08;;;21.40;99.90;;;;;;4968249;28;20038;-71
2023/08/19 02:03:57;;;;;;;27.98;24.40;;;21.40;99.90;;;;;;4940564;28;20053;-71
2023/08/19 02:06:43;;;;;;;25.67;21.95;;;21.50;99.90;;;;;;4964267;28;20043;-71
2023/08/19 02:09:29;;;;;;;26.17;20.75;;;21.40;99.90;;;;;;4953647;28;20125;-71
2023/08/19 02:12:15;;;;;;;24.48;20.13;;;21.50;99.90;;;;;;4942708;28;20078;-71
2023/08/19 02:15:01;;;;;;;26.77;22.30;;;21.40;99.90;;;;;;4957803;28;20475;-71
2023/08/19 02:17:47;;;;;;;29.02;24.42;;;21.40;99.90;;;;;;4967059;28;20058;-71
2023/08/19 02:20:32;;;;;;;23.55;19.70;;;21.30;99.90;;;;;;4938981;29;20039;-71
2023/08/19 02:23:18;;;;;;;22.92;19.77;;;21.30;99.90;;;;;;4964986;28;20832;-71
2023/08/19 02:26:04;;;;;;;22.15;19.60;;;21.30;99.90;;;;;;4970014;28;20109;-71
2023/08/19 02:28:50;;;;;;;25.05;22.02;;;21.30;99.90;;;;;;4969047;28;20050;-71
2023/08/19 02:31:37;;;;;;;28.42;23.17;;;21.20;99.90;;;;;;4954644;28;20595;-71
2023/08/19 02:34:23;;;;;;;23.65;20.80;;;21.20;99.90;;;;;;4971722;28;20574;-71
2023/08/19 02:37:13;;;;;;;27.73;19.98;;;21.20;99.90;;;;;;4969031;28;20053;-71
2023/08/19 02:39:59;;;;;;;24.30;21.75;;;21.20;99.90;;;;;;4971194;28;20085;-71
2023/08/19 02:42:45;;;;;;;26.00;21.35;;;21.20;99.90;;;;;;4985538;28;20391;-71
2023/08/19 02:45:35;;;;;;;23.80;21.20;;;21.10;99.90;;;;;;4985606;28;20038;-71
2023/08/19 02:48:21;;;;;;;27.88;23.20;;;21.10;99.90;;;;;;4976115;28;20482;-71
2023/08/19 02:51:07;;;;;;;22.52;20.20;;;21.00;99.90;;;;;;4971437;28;20464;-71
2023/08/19 02:53:53;;;;;;;23.48;19.50;;;20.90;99.90;;;;;;4968294;28;20046;-71
2023/08/19 02:56:39;;;;;;;22.30;19.88;;;20.90;99.90;;;;;;4987782;28;20041;-71
2023/08/19 02:59:25;;;;;;;24.15;20.45;;;20.80;99.90;;;;;;4971786;28;20383;-71
2023/08/19 03:02:11;;;;;;;25.83;19.10;;;20.80;99.90;;;;;;4976571;28;20104;-71
2023/08/19 03:04:57;;;;;;;24.63;19.63;;;20.90;99.90;;;;;;4976057;28;20414;-71
2023/08/19 03:07:42;;;;;;;23.70;21.05;;;20.80;99.90;;;;;;4966160;28;20039;-71
2023/08/19 03:10:28;;;;;;;23.70;19.13;;;20.80;99.90;;;;;;4959616;28;20043;-71
2023/08/19 03:13:14;;;;;;;23.40;20.65;;;20.80;99.90;;;;;;4981923;28;20042;-71
2023/08/19 03:16:00;;;;;;;23.67;20.30;;;20.80;99.90;;;;;;4989224;28;20076;-71
2023/08/19 03:18:46;;;;;;;27.00;21.05;;;20.70;99.90;;;;;;4986074;28;20045;-71
2023/08/19 03:21:33;;;;;;;22.13;19.73;;;20.60;99.90;;;;;;4973781;28;20514;-71
2023/08/19 03:24:19;;;;;;;24.83;19.70;;;20.60;99.90;;;;;;4988165;28;20463;-71
2023/08/19 03:27:05;;;;;;;23.70;21.17;;;20.60;99.90;;;;;;4985090;28;20047;-71
2023/08/19 03:29:51;;;;;;;23.23;20.73;;;20.60;99.90;;;;;;4950191;28;20047;-71
2023/08/19 03:32:37;;;;;;;26.63;22.15;;;20.60;99.90;;;;;;4985061;28;20096;-71
2023/08/19 03:35:22;;;;;;;24.08;20.85;;;20.60;99.90;;;;;;4979527;28;20383;-71
2023/08/19 03:38:08;;;;;;;23.50;19.60;;;20.60;99.90;;;;;;4961499;28;20059;-71
2023/08/19 03:40:54;;;;;;;27.08;22.02;;;20.50;99.90;;;;;;4977737;28;20117;-71
2023/08/19 03:43:42;;;;;;;25.30;20.83;;;20.50;99.90;;;;;;4991525;28;20074;-71
2023/08/19 03:46:28;;;;;;;21.55;19.25;;;20.50;99.90;;;;;;4999818;28;20045;-71
2023/08/19 03:49:14;;;;;;;29.50;22.55;;;20.50;99.90;;;;;;4968445;28;20038;-71
2023/08/19 03:52:00;;;;;;;25.00;21.33;;;20.50;99.90;;;;;;4972427;28;20378;-71
2023/08/19 03:54:46;;;;;;;30.58;24.73;;;20.50;99.90;;;;;;4976013;28;20065;-71
2023/08/19 03:57:32;;;;;;;24.35;21.70;;;20.40;99.90;;;;;;4962319;28;20053;-71
2023/08/19 04:00:18;;;;;;;30.02;25.67;;;20.40;99.90;;;;;;4957755;28;20467;-71
2023/08/19 04:03:04;;;;;;;27.60;22.92;;;20.40;99.90;;;;;;4986080;28;20046;-71
2023/08/19 04:05:50;;;;;;;27.10;22.25;;;20.40;99.90;;;;;;4978718;28;20153;-71
2023/08/19 04:08:36;;;;;;;30.23;22.02;;;20.40;99.90;;;;;;4979312;28;20054;-71
2023/08/19 04:11:22;;;;;;;28.13;22.10;;;20.40;99.90;;;;;;4978082;28;20065;-71
2023/08/19 04:14:08;;;;;;;26.77;22.73;;;20.30;99.90;;;;;;4961336;28;20051;-71
2023/08/19 04:16:54;;;;;;;36.05;26.13;;;20.40;99.90;;;;;;4980358;28;20455;-71
2023/08/19 04:19:40;;;;;;;26.90;23.77;;;20.40;99.90;;;;;;4971732;28;20054;-71
2023/08/19 04:22:26;;;;;;;27.17;24.20;;;20.40;99.90;;;;;;4983529;28;20554;-71
2023/08/19 04:25:12;;;;;;;25.55;21.48;;;20.40;99.90;;;;;;4971383;28;20104;-71
2023/08/19 04:27:58;;;;;;;25.52;21.77;;;20.40;99.90;;;;;;4962213;28;20074;-71
2023/08/19 04:30:44;;;;;;;27.60;21.63;;;20.40;99.90;;;;;;4973344;28;20070;-71
2023/08/19 04:33:31;;;;;;;27.70;23.58;;;20.40;99.90;;;;;;4973668;28;20137;-71
2023/08/19 04:36:17;;;;;;;27.27;21.45;;;20.50;99.90;;;;;;4984370;28;20041;-71
2023/08/19 04:39:07;;;;;;;27.75;23.45;;;20.40;99.90;;;;;;4951703;28;20066;-71
2023/08/19 04:41:53;;;;;;;23.73;21.10;;;20.40;99.90;;;;;;4984295;28;20043;-71
2023/08/19 04:44:39;;;;;;;23.58;21.05;;;20.40;99.90;;;;;;4972899;28;20053;-71
2023/08/19 04:47:25;;;;;;;25.95;23.05;;;20.40;99.90;;;;;;4977035;28;20043;-71
2023/08/19 04:50:11;;;;;;;23.75;20.85;;;20.30;99.90;;;;;;4972670;28;20056;-72
2023/08/19 04:52:57;;;;;;;27.15;21.25;;;20.20;99.90;;;;;;4970217;28;20316;-72
2023/08/19 04:55:43;;;;;;;26.13;23.33;;;20.20;99.90;;;;;;4983192;28;20114;-72
2023/08/19 04:58:29;;;;;;;26.33;23.33;;;20.30;99.90;;;;;;4964486;28;20046;-72
2023/08/19 05:01:15;;;;;;;23.02;19.50;;;20.40;99.90;;;;;;4974101;28;20042;-72
2023/08/19 05:04:00;;;;;;;24.40;21.33;;;20.50;99.90;;;;;;4984709;28;20121;-71
2023/08/19 05:06:46;;;;;;;27.77;21.67;;;20.50;99.90;;;;;;4959449;28;20066;-72
2023/08/19 05:09:32;;;;;;;25.42;21.65;;;20.40;99.90;;;;;;4982518;28;20034;-72
2023/08/19 05:12:18;;;;;;;29.23;24.08;;;20.50;99.90;;;;;;4958697;28;20034;-72
2023/08/19 05:15:05;;;;;;;24.23;21.63;;;20.40;99.90;;;;;;4963896;28;20053;-71
2023/08/19 05:17:51;;;;;;;25.50;22.08;;;20.50;99.90;;;;;;4978168;28;20074;-71
2023/08/19 05:20:37;;;;;;;26.85;23.95;;;20.50;99.90;;;;;;4963974;28;20546;-71
2023/08/19 05:23:23;;;;;;;29.92;25.30;;;20.60;99.90;;;;;;4947989;28;20121;-71
2023/08/19 05:26:09;;;;;;;28.45;24.77;;;20.60;99.90;;;;;;4989029;28;20081;-71
2023/08/19 05:28:55;;;;;;;26.08;22.20;;;20.60;99.90;;;;;;4971961;28;20421;-71
2023/08/19 05:31:42;;;;;;;26.33;23.48;;;20.60;99.90;;;;;;4986475;28;20046;-70
2023/08/19 05:34:27;;;;;;;26.20;22.30;;;20.70;99.90;;;;;;4950392;28;20050;-71
2023/08/19 05:37:13;;;;;;;27.63;22.05;;;20.70;99.90;;;;;;4969216;28;20055;-71
2023/08/19 05:40:00;;;;;;;25.38;21.83;;;20.70;99.90;;;;;;4970338;28;20130;-71
2023/08/19 05:42:47;;;;;;;27.23;21.95;;;20.80;99.90;;;;;;4990381;28;20035;-71
2023/08/19 05:45:33;;;;;;;24.75;22.13;;;20.90;99.90;;;;;;4985266;28;20038;-71
2023/08/19 05:48:19;;;;;;;25.92;22.98;;;21.00;99.90;;;;;;4959625;28;20668;-72
2023/08/19 05:51:05;;;;;;;26.30;22.20;;;21.00;99.90;;;;;;4943041;28;20041;-71
2023/08/19 05:53:54;;;;;;;25.13;21.70;;;21.10;99.90;;;;;;4976507;28;20043;-72
2023/08/19 05:56:40;;;;;;;24.42;20.85;;;21.20;99.90;;;;;;4981313;28;20100;-71
2023/08/19 05:59:26;;;;;;;23.35;20.27;;;21.20;99.90;;;;;;4957569;28;20041;-72
2023/08/19 06:02:12;;;;;;;27.02;21.95;;;21.30;99.90;;;;;;4964060;28;20062;-72
2023/08/19 06:04:58;;;;;;;23.13;19.75;;;21.30;99.90;;;;;;4964726;28;20046;-72
2023/08/19 06:07:44;;;;;;;24.75;21.40;;;21.40;99.90;;;;;;4971623;28;20194;-72
2023/08/19 06:10:30;;;;;;;22.35;20.02;;;21.40;99.90;;;;;;4977485;28;20038;-73
2023/08/19 06:13:16;;;;;;;23.70;21.05;;;21.50;99.90;;;;;;4959896;28;20113;-72
2023/08/19 06:16:06;;;;;;;22.63;20.25;;;21.60;99.90;;;;;;4965254;28;20038;-72
2023/08/19 06:18:52;;;;;;;22.77;20.20;;;21.70;99.90;;;;;;4945601;28;20043;-72
2023/08/19 06:21:38;;;;;;;25.52;19.15;;;21.70;99.90;;;;;;4973611;28;20582;-72
2023/08/19 06:24:24;;;;;;;26.45;19.33;;;21.80;99.90;;;;;;4979287;28;20341;-72
2023/08/19 06:27:10;;;;;;;20.08;17.98;;;21.90;99.90;;;;;;4987278;28;20112;-72
2023/08/19 06:29:56;;;;;;;21.73;18.50;;;21.90;99.90;;;;;;4977198;28;20042;-72
2023/08/19 06:32:42;;;;;;;19.23;17.02;;;22.00;99.90;;;;;;4951849;28;20057;-72
2023/08/19 06:35:28;;;;;;;19.65;16.73;;;22.10;99.90;;;;;;4986212;28;20046;-72
2023/08/19 06:38:19;;;;;;;22.05;17.65;;;22.20;99.90;;;;;;4964532;28;20054;-72
2023/08/19 06:41:10;;;;;;;18.80;16.88;;;22.30;99.90;;;;;;4979538;28;20043;-72
2023/08/19 06:43:57;;;;;;;17.98;15.55;;;22.30;99.90;;;;;;4960792;28;20121;-72
2023/08/19 06:46:43;;;;;;;20.73;15.87;;;22.50;99.90;;;;;;4939267;28;20644;-72
2023/08/19 06:49:29;;;;;;;22.10;15.65;;;22.50;99.90;;;;;;4972331;28;20377;-72
2023/08/19 06:52:16;;;;;;;17.23;15.50;;;22.60;99.90;;;;;;4962476;28;20043;-72
2023/08/19 06:55:03;;;;;;;18.33;14.52;;;22.70;99.90;;;;;;4974620;28;20046;-71
2023/08/19 06:58:03;;;;;;;16.33;14.43;;;22.80;99.90;;;;;;4966609;28;20046;-72
2023/08/19 07:00:49;;;;;;;17.35;14.13;;;22.90;99.90;;;;;;4964908;28;20597;-72
2023/08/19 07:03:36;;;;;;;17.25;14.63;;;23.00;99.90;;;;;;4973227;28;20030;-72
2023/08/19 07:06:22;;;;;;;20.80;13.65;;;23.10;99.90;;;;;;4956263;28;20538;-72
2023/08/19 07:09:08;;;;;;;14.40;12.90;;;23.20;99.90;;;;;;4938872;29;20101;-72
2023/08/19 07:11:55;;;;;;;14.50;13.00;;;23.30;99.90;;;;;;4970193;28;20482;-72
2023/08/19 07:14:41;;;;;;;13.13;11.80;;;23.40;99.90;;;;;;4957899;28;20049;-72
2023/08/19 07:17:27;;;;;;;13.50;11.70;;;23.50;99.90;;;;;;4998749;28;20065;-72
2023/08/19 07:20:18;;;;;;;13.05;11.68;;;23.60;99.90;;;;;;4949282;28;20039;-72
2023/08/19 07:23:04;;;;;;;14.70;12.27;;;23.80;99.90;;;;;;4956038;28;20070;-72
2023/08/19 07:25:53;;;;;;;15.00;12.32;;;23.90;99.90;;;;;;4958235;28;20042;-71
2023/08/19 07:28:39;;;;;;;16.90;12.02;;;24.00;99.90;;;;;;4955197;28;20061;-71
2023/08/19 07:31:25;;;;;;;12.70;11.40;;;24.00;99.90;;;;;;4943850;28;20102;-71
2023/08/19 07:34:11;;;;;;;15.70;11.55;;;24.10;99.90;;;;;;4951662;28;20047;-72
2023/08/19 07:36:57;;;;;;;12.55;11.00;;;24.20;99.90;;;;;;4953432;28;20047;-70
2023/08/19 07:39:43;;;;;;;13.50;10.93;;;24.20;99.90;;;;;;4988180;28;20077;-71
2023/08/19 07:42:29;;;;;;;12.73;11.40;;;24.30;99.90;;;;;;4954483;28;20042;-71
2023/08/19 07:45:15;;;;;;;11.93;10.70;;;24.40;99.90;;;;;;4968996;28;20177;-71
2023/08/19 07:48:01;;;;;;;14.90;11.13;;;24.50;99.90;;;;;;4963975;28;20043;-71
2023/08/19 07:50:47;;;;;;;15.25;11.23;;;24.60;99.90;;;;;;4961104;28;20058;-72
2023/08/19 07:53:33;;;;;;;15.73;11.02;;;24.70;99.90;;;;;;4976193;28;20790;-72
2023/08/19 07:56:19;;;;;;;14.48;10.85;;;24.80;99.90;;;;;;4966831;28;20659;-72
2023/08/19 07:59:05;;;;;;;13.45;10.65;;;24.80;99.90;;;;;;4969304;28;20078;-71
2023/08/19 08:01:52;;;;;;;12.65;10.68;;;24.80;99.90;;;;;;4980722;28;20042;-71
2023/08/19 08:04:38;;;;;;;12.00;10.55;;;24.90;99.90;;;;;;4992571;28;20495;-71
2023/08/19 08:07:24;;;;;;;10.93;9.80;;;24.90;99.90;;;;;;4977799;28;20133;-71
2023/08/19 08:10:10;;;;;;;12.07;10.88;;;25.00;99.90;;;;;;4980161;28;20049;-71
2023/08/19 08:12:56;;;;;;;10.35;9.35;;;25.00;99.90;;;;;;4988098;28;20073;-71
2023/08/19 08:15:42;;;;;;;10.02;9.02;;;25.10;99.90;;;;;;4975751;28;20038;-71
2023/08/19 08:18:27;;;;;;;9.80;8.80;;;25.10;99.90;;;;;;4983418;28;20415;-71
2023/08/19 08:21:14;;;;;;;10.80;8.70;;;25.20;99.90;;;;;;4989351;28;20042;-71
2023/08/19 08:24:00;;;;;;;10.75;8.65;;;25.40;99.90;;;;;;4971027;28;20057;-70
2023/08/19 08:26:46;;;;;;;11.77;8.27;;;25.50;99.90;;;;;;4980990;28;20367;-71
2023/08/19 08:29:32;;;;;;;9.30;7.80;;;25.60;99.90;;;;;;4964365;28;20161;-71
2023/08/19 08:32:18;;;;;;;9.65;7.97;;;25.60;99.90;;;;;;4946531;28;20046;-71
2023/08/19 08:35:05;;;;;;;10.48;8.68;;;25.60;99.90;;;;;;4971452;28;20171;-71
2023/08/19 08:37:50;;;;;;;9.20;7.30;;;25.70;99.90;;;;;;4983755;28;20066;-71
2023/08/19 08:40:37;;;;;;;9.07;7.50;;;25.80;99.90;;;;;;4979576;28;20031;-71
2023/08/19 08:43:22;;;;;;;8.23;7.18;;;25.80;99.90;;;;;;4964811;28;20117;-71
2023/08/19 08:46:08;;;;;;;10.38;7.35;;;25.90;99.90;;;;;;4981355;28;20099;-71
2023/08/19 08:48:54;;;;;;;11.10;7.32;;;26.00;99.90;;;;;;4989087;28;20174;-71
2023/08/19 08:51:40;;;;;;;8.60;7.70;;;25.90;99.90;;;;;;4981051;28;20136;-71
2023/08/19 08:54:26;;;;;;;8.02;7.22;;;26.00;99.90;;;;;;4989735;28;20042;-71
2023/08/19 08:57:16;;;;;;;7.25;6.55;;;26.10;99.90;;;;;;4953545;28;20056;-71
2023/08/19 09:00:03;;;;;;;8.82;6.72;;;26.20;99.90;;;;;;4982858;28;20069;-71
2023/08/19 09:02:49;;;;;;;6.93;6.22;;;26.30;99.90;;;;;;4977853;28;20066;-71
2023/08/19 09:05:36;;;;;;;7.40;6.70;;;26.40;99.90;;;;;;4991362;28;20120;-71
2023/08/19 09:08:50;;;;;;;8.90;7.23;;;26.40;99.90;;;;;;4947459;28;20105;-71
2023/08/19 09:11:41;;;;;;;9.35;6.78;;;26.60;99.90;;;;;;4962535;28;20498;-71
2023/08/19 09:14:40;;;;;;;9.18;6.55;;;26.60;99.90;;;;;;4972867;28;20079;-71
2023/08/19 09:17:26;;;;;;;7.63;6.82;;;26.70;99.90;;;;;;4980774;28;20047;-71
2023/08/19 09:20:12;;;;;;;10.02;5.60;;;26.90;99.90;;;;;;4982961;28;20063;-71
2023/08/19 09:23:06;;;;;;;8.32;6.00;;;26.90;99.90;;;;;;4972426;28;20058;-71
2023/08/19 09:25:52;;;;;;;6.35;5.50;;;27.00;99.90;;;;;;4950868;28;20038;-71
2023/08/19 09:28:38;;;;;;;7.82;5.75;;;27.10;99.90;;;;;;4951706;28;20042;-71
2023/08/19 09:31:25;;;;;;;6.22;5.57;;;27.20;99.90;;;;;;4970257;28;20619;-71
2023/08/19 09:34:14;;;;;;;7.50;6.45;;;27.40;99.90;;;;;;4974835;28;20775;-71
2023/08/19 09:37:02;;;;;;;6.40;5.80;;;27.60;99.90;;;;;;4964701;28;20052;-71
2023/08/19 09:39:48;;;;;;;9.05;5.88;;;27.80;99.90;;;;;;4976405;28;20061;-71
2023/08/19 09:42:37;;;;;;;10.35;6.00;;;27.90;99.90;;;;;;4965497;28;20045;-71
2023/08/19 09:45:25;;;;;;;8.45;5.82;;;28.00;99.90;;;;;;4978165;28;20494;-71
2023/08/19 09:48:12;;;;;;;7.75;5.50;;;28.10;99.90;;;;;;4992151;28;20042;-71
2023/08/19 09:51:00;;;;;;;6.28;5.47;;;28.10;99.90;;;;;;4979982;28;20053;-71
2023/08/19 09:53:46;;;;;;;7.05;5.20;;;28.10;99.90;;;;;;4991205;28;20438;-71
2023/08/19 09:56:32;;;;;;;6.20;5.43;;;28.20;99.90;;;;;;4982403;28;20047;-71
2023/08/19 09:59:18;;;;;;;5.97;4.80;;;28.30;99.90;;;;;;4971254;28;20447;-71
2023/08/19 10:02:04;;;;;;;7.15;4.60;;;28.50;99.90;;;;;;4970545;28;20035;-71
2023/08/19 10:04:50;;;;;;;6.57;5.13;;;28.70;99.90;;;;;;4963243;28;20038;-71
2023/08/19 10:07:37;;;;;;;8.65;5.10;;;28.90;99.90;;;;;;4975195;28;20043;-71
2023/08/19 10:10:23;;;;;;;6.22;4.70;;;28.90;99.90;;;;;;4954863;28;20046;-71
2023/08/19 10:13:09;;;;;;;6.85;4.90;;;28.90;99.90;;;;;;4971534;28;20043;-71
2023/08/19 10:15:57;;;;;;;5.55;4.38;;;28.90;99.90;;;;;;4977516;28;20074;-70
2023/08/19 10:18:44;;;;;;;4.72;4.00;;;28.80;99.80;;;;;;4977005;28;20039;-70
2023/08/19 10:21:30;;;;;;;7.35;4.13;;;28.80;99.60;;;;;;4989423;28;20181;-71
2023/08/19 10:24:16;;;;;;;10.23;4.30;;;28.80;99.70;;;;;;4980084;28;20345;-71
2023/08/19 10:27:02;;;;;;;6.68;4.32;;;29.10;99.90;;;;;;4972896;28;20039;-71
2023/08/19 10:29:56;;;;;;;5.75;4.80;;;29.20;99.90;;;;;;4958643;28;20039;-72
2023/08/19 10:32:42;;;;;;;5.40;3.88;;;29.30;99.90;;;;;;4984879;28;20035;-70
2023/08/19 10:35:28;;;;;;;6.03;4.30;;;29.30;98.60;;;;;;4959006;28;20507;-71
2023/08/19 10:38:15;;;;;;;7.07;4.63;;;29.30;99.00;;;;;;4965368;28;20117;-70
2023/08/19 10:41:02;;;;;;;6.00;4.55;;;29.50;99.00;;;;;;4968712;28;20064;-70
2023/08/19 10:43:55;;;;;;;6.80;4.73;;;29.50;99.40;;;;;;4961595;28;20130;-71
2023/08/19 10:46:47;;;;;;;7.75;5.30;;;29.60;99.60;;;;;;4979769;28;20354;-72
2023/08/19 10:49:36;;;;;;;7.05;4.88;;;29.80;99.10;;;;;;4957560;28;20039;-72
2023/08/19 10:52:22;;;;;;;5.63;4.85;;;30.00;99.80;;;;;;4956156;28;20058;-72
2023/08/19 10:55:08;;;;;;;6.20;5.28;;;30.20;99.00;;;;;;4956154;28;20054;-71
2023/08/19 10:57:56;;;;;;;5.47;4.97;;;30.30;98.40;;;;;;4968539;28;20384;-72
2023/08/19 11:00:42;;;;;;;5.72;5.10;;;30.50;98.70;;;;;;4946890;28;20039;-72
2023/08/19 11:03:28;;;;;;;7.82;4.93;;;30.70;98.60;;;;;;4976605;28;20043;-72
2023/08/19 11:08:18;;;;;;;8.40;5.28;;;30.50;99.20;;;;;;5108653;27;20407;-75
2023/08/19 11:11:04;;;;;;;6.50;4.70;;;30.20;99.70;;;;;;5054496;28;20041;-74
2023/08/19 11:13:50;;;;;;;7.10;4.63;;;30.00;98.20;;;;;;5051361;28;20456;-77
2023/08/19 11:16:36;;;;;;;7.25;4.40;;;30.00;98.70;;;;;;5082515;28;20109;-76
2023/08/19 11:19:23;;;;;;;5.85;3.92;;;30.10;97.60;;;;;;5072659;28;20039;-76
2023/08/19 11:22:15;;;;;;;8.15;3.75;;;30.10;96.50;;;;;;5041765;28;20115;-76
2023/08/19 11:25:01;;;;;;;8.23;4.38;;;30.10;95.80;;;;;;5044320;28;20028;-77
2023/08/19 11:27:47;;;;;;;8.00;4.07;;;30.10;96.60;;;;;;5053073;28;20055;-76
2023/08/19 11:30:33;;;;;;;6.30;4.10;;;30.20;95.50;;;;;;5081599;28;20040;-76
2023/08/19 11:33:19;;;;;;;6.90;3.78;;;30.20;96.40;;;;;;5062235;28;20134;-77
2023/08/19 11:36:05;;;;;;;8.93;3.88;;;30.40;96.40;;;;;;5070351;28;20094;-76
2023/08/19 11:38:57;;;;;;;8.55;4.20;;;30.50;95.40;;;;;;5054288;28;20673;-76
2023/08/19 11:41:45;;;;;;;5.68;4.05;;;30.60;96.00;;;;;;5080794;28;20411;-77
2023/08/19 11:44:31;;;;;;;7.38;4.10;;;30.80;95.80;;;;;;5078119;28;20039;-75
2023/08/19 11:47:17;;;;;;;5.82;4.00;;;30.80;96.50;;;;;;5064544;28;20055;-77
2023/08/19 11:50:05;;;;;;;5.50;4.30;;;30.90;96.50;;;;;;5059604;28;20051;-78
2023/08/19 11:52:52;;;;;;;7.63;3.63;;;31.10;96.50;;;;;;5076510;28;20032;-78
2023/08/19 11:55:38;;;;;;;6.22;4.15;;;31.20;96.00;;;;;;5069980;28;20107;-78
2023/08/19 11:58:27;;;;;;;4.78;3.55;;;31.30;96.40;;;;;;5067776;28;20037;-77
2023/08/19 12:01:13;;;;;;;9.85;4.50;;;31.30;94.10;;;;;;5052572;28;20045;-77
2023/08/19 12:04:00;;;;;;;6.40;3.72;;;31.30;95.80;;;;;;5070085;28;20036;-75
2023/08/19 12:06:47;;;;;;;4.90;3.45;;;31.50;96.50;;;;;;5086416;28;20080;-78
2023/08/19 12:09:35;;;;;;;5.70;4.20;;;31.60;94.30;;;;;;5072412;28;20047;-77
2023/08/19 12:12:21;;;;;;;5.45;3.63;;;31.50;94.20;;;;;;5062223;28;20510;-79
2023/08/19 12:15:08;;;;;;;9.50;3.50;;;31.70;95.20;;;;;;5047217;28;20048;-76
2023/08/19 12:17:54;;;;;;;6.45;3.63;;;31.60;93.80;;;;;;5053572;28;20421;-76
2023/08/19 12:20:40;;;;;;;6.43;4.00;;;31.70;94.40;;;;;;5047691;28;20392;-78
2023/08/19 12:23:27;;;;;;;7.10;3.67;;;31.90;94.70;;;;;;5050451;28;20549;-78
2023/08/19 12:26:13;;;;;;;6.10;3.67;;;32.00;93.60;;;;;;5043956;28;20056;-77
2023/08/19 12:28:59;;;;;;;6.53;3.97;;;32.10;94.40;;;;;;5060320;28;20032;-77
2023/08/19 12:31:45;;;;;;;5.95;3.85;;;32.20;93.00;;;;;;5063287;28;20039;-76
2023/08/19 12:34:31;;;;;;;5.63;3.42;;;32.10;92.60;;;;;;5094772;28;20046;-76
2023/08/19 12:37:16;;;;;;;6.15;3.72;;;32.20;93.80;;;;;;5063106;28;20358;-76
2023/08/19 12:40:03;;;;;;;6.60;3.80;;;32.30;92.30;;;;;;5044338;28;20499;-77
2023/08/19 12:42:53;;;;;;;8.47;3.70;;;32.20;93.20;;;;;;5075792;28;20048;-77
2023/08/19 12:45:39;;;;;;;5.50;3.97;;;32.30;94.10;;;;;;5062898;28;20094;-77
2023/08/19 12:48:25;;;;;;;4.60;3.42;;;32.50;94.40;;;;;;5061310;28;20040;-77
2023/08/19 12:51:11;;;;;;;6.80;3.85;;;32.40;93.10;;;;;;5049494;28;20047;-75
2023/08/19 12:53:57;;;;;;;7.75;4.65;;;32.10;93.00;;;;;;5076033;28;20047;-76
2023/08/19 12:56:43;;;;;;;7.43;3.90;;;32.00;93.40;;;;;;5065253;28;20039;-77
2023/08/19 12:59:29;;;;;;;7.00;3.75;;;32.00;93.80;;;;;;5081275;28;20487;-78
2023/08/19 13:02:15;;;;;;;5.68;3.72;;;31.90;94.20;;;;;;5057553;28;20041;-78
2023/08/19 13:05:01;;;;;;;7.40;3.65;;;31.80;94.00;;;;;;5066125;28;20075;-76
2023/08/19 13:07:47;;;;;;;6.28;4.20;;;31.80;94.50;;;;;;5063052;28;20048;-77
2023/08/19 13:10:33;;;;;;;6.00;3.53;;;31.80;94.50;;;;;;5065011;28;20109;-76
2023/08/19 13:13:19;;;;;;;5.32;3.78;;;31.70;93.80;;;;;;5085419;28;20344;-77
2023/08/19 13:16:05;;;;;;;7.50;3.65;;;31.60;93.30;;;;;;5063138;28;20115;-77
2023/08/19 13:18:51;;;;;;;6.72;3.97;;;31.50;93.40;;;;;;5076945;28;20036;-77
2023/08/19 13:21:37;;;;;;;8.77;3.80;;;31.40;92.70;;;;;;5077497;28;20123;-76
2023/08/19 13:24:23;;;;;;;4.47;3.30;;;31.30;92.40;;;;;;5059702;28;20122;-77
2023/08/19 13:27:09;;;;;;;6.00;4.10;;;31.20;92.90;;;;;;5075855;28;20054;-77
2023/08/19 13:29:55;;;;;;;8.48;3.50;;;31.20;93.00;;;;;;5080649;28;20410;-77
2023/08/19 13:32:42;;;;;;;6.93;4.10;;;31.20;92.40;;;;;;5093853;28;20043;-78
2023/08/19 13:35:28;;;;;;;6.78;3.72;;;31.20;92.10;;;;;;5080308;28;20043;-75
2023/08/19 13:38:14;;;;;;;9.63;3.50;;;31.30;93.10;;;;;;5074572;28;20047;-77
2023/08/19 13:41:00;;;;;;;7.43;3.40;;;31.40;93.00;;;;;;5060773;28;20054;-77
2023/08/19 13:43:46;;;;;;;4.57;3.42;;;31.40;92.80;;;;;;5055917;28;20040;-77
2023/08/19 13:46:32;;;;;;;5.50;3.30;;;31.40;93.10;;;;;;5047125;28;20127;-75
2023/08/19 13:49:19;;;;;;;6.60;3.88;;;31.30;93.30;;;;;;5063158;28;20428;-77
2023/08/19 13:52:05;;;;;;;4.70;3.43;;;31.30;93.60;;;;;;5041195;28;20047;-75
2023/08/19 13:54:51;;;;;;;6.35;4.10;;;31.10;93.50;;;;;;5058557;28;20044;-77
2023/08/19 13:57:37;;;;;;;6.72;3.58;;;31.00;94.00;;;;;;5050628;28;20044;-76
2023/08/19 14:00:23;;;;;;;5.53;3.70;;;30.90;93.90;;;;;;5049460;28;20036;-77
2023/08/19 14:03:09;;;;;;;8.88;3.88;;;30.90;94.00;;;;;;5056901;28;20174;-77
2023/08/19 14:05:55;;;;;;;7.50;3.60;;;30.80;94.00;;;;;;5057317;28;20123;-77
2023/08/19 14:08:41;;;;;;;6.10;3.80;;;30.70;94.00;;;;;;5071944;28;20883;-77
2023/08/19 14:11:28;;;;;;;8.35;3.85;;;30.60;93.90;;;;;;5054901;28;20075;-77
2023/08/19 14:14:14;;;;;;;;;;;30.50;94.10;;;;;;5047244;28;20072;-77
2023/08/19 14:17:00;;;;;;;10.15;3.88;;;30.50;94.20;;;;;;5090951;28;20222;-77